createdAt,value
2023-01-30T00:01:19.824Z,53.50
2023-01-30T00:03:46.784Z,57.83
2023-01-30T00:06:14.220Z,61.80
2023-01-30T00:08:42.208Z,56.97
2023-01-30T00:11:11.830Z,58.37
2023-01-30T00:13:40.180Z,55.57
2023-01-30T00:16:09.695Z,51.67
2023-01-30T00:18:38.600Z,48.03
2023-01-30T00:21:07.913Z,53.93
2023-01-30T00:23:36.278Z,58.00
2023-01-30T00:26:04.414Z,55.60
2023-01-30T00:28:31.256Z,55.23
2023-01-30T00:30:58.242Z,57.47
2023-01-30T00:33:26.588Z,55.70
2023-01-30T00:35:55.289Z,59.60
2023-01-30T00:38:23.409Z,58.60
2023-01-30T00:40:50.694Z,59.87
2023-01-30T00:43:38.622Z,57.37
2023-01-30T00:46:32.398Z,58.90
2023-01-30T00:48:59.092Z,59.57
2023-01-30T00:51:25.836Z,57.53
2023-01-30T00:53:52.480Z,56.27
2023-01-30T00:56:19.448Z,60.43
2023-01-30T00:58:46.128Z,62.03
2023-01-30T01:01:12.872Z,58.50
2023-01-30T01:03:39.628Z,63.90
2023-01-30T01:06:07.007Z,64.40
2023-01-30T01:08:35.888Z,62.03
2023-01-30T01:11:02.798Z,75.20
2023-01-30T01:13:29.668Z,74.67
2023-01-30T01:15:56.543Z,76.70
2023-01-30T01:18:23.336Z,77.43
2023-01-30T01:20:50.064Z,67.97
2023-01-30T01:23:16.753Z,78.80
2023-01-30T01:25:43.484Z,77.17
2023-01-30T01:28:10.170Z,75.23
2023-01-30T01:30:38.347Z,78.93
2023-01-30T01:33:05.164Z,71.30
2023-01-30T01:35:31.902Z,73.90
2023-01-30T01:37:58.587Z,73.00
2023-01-30T01:40:43.822Z,74.83
2023-01-30T01:43:36.360Z,73.57
2023-01-30T01:46:09.946Z,72.73
2023-01-30T01:48:45.089Z,72.13
2023-01-30T01:51:26.695Z,73.40
2023-01-30T01:54:26.335Z,67.33
2023-01-30T01:56:53.784Z,62.50
2023-01-30T01:59:32.233Z,57.30
2023-01-30T02:02:03.485Z,63.97
2023-01-30T02:04:50.881Z,64.57
2023-01-30T02:07:20.219Z,63.37
2023-01-30T02:09:47.185Z,61.27
2023-01-30T02:12:15.489Z,63.20
2023-01-30T02:14:43.945Z,62.37
2023-01-30T02:17:10.708Z,57.47
2023-01-30T02:20:01.965Z,60.67
2023-01-30T02:22:50.391Z,59.90
2023-01-30T02:25:35.270Z,55.70
2023-01-30T02:28:04.615Z,58.73
2023-01-30T02:30:37.419Z,58.17
2023-01-30T02:33:19.001Z,56.77
2023-01-30T02:35:51.953Z,59.50
2023-01-30T02:38:42.063Z,61.83
2023-01-30T02:41:08.690Z,61.43
2023-01-30T02:44:05.018Z,60.43
2023-01-30T02:46:53.156Z,66.13
2023-01-30T02:49:42.494Z,61.50
2023-01-30T02:52:12.709Z,66.93
2023-01-30T02:54:39.579Z,69.50
2023-01-30T02:57:21.793Z,64.13
2023-01-30T02:59:58.967Z,65.93
2023-01-30T03:02:52.276Z,78.10
2023-01-30T03:05:49.240Z,71.17
2023-01-30T03:08:28.178Z,74.50
2023-01-30T03:11:04.406Z,69.63
2023-01-30T03:13:37.663Z,70.13
2023-01-30T03:16:12.052Z,70.63
2023-01-30T03:18:44.682Z,67.83
2023-01-30T03:21:12.685Z,71.07
2023-01-30T03:23:39.540Z,76.83
2023-01-30T03:26:13.034Z,74.37
2023-01-30T03:28:40.353Z,71.27
2023-01-30T03:31:07.281Z,62.47
2023-01-30T03:33:34.054Z,66.33
2023-01-30T03:36:00.777Z,65.03
2023-01-30T03:38:27.811Z,63.90
2023-01-30T03:40:54.509Z,60.03
2023-01-30T03:43:21.240Z,70.27
2023-01-30T03:45:48.088Z,61.57
2023-01-30T03:48:15.295Z,62.53
2023-01-30T03:50:42.233Z,63.63
2023-01-30T03:53:09.543Z,59.53
2023-01-30T03:55:36.380Z,57.87
2023-01-30T03:58:03.620Z,58.47
2023-01-30T04:00:30.404Z,56.07
2023-01-30T04:02:57.404Z,55.90
2023-01-30T04:05:24.069Z,53.97
2023-01-30T04:07:51.483Z,47.17
2023-01-30T04:10:20.088Z,48.77
2023-01-30T04:12:47.414Z,48.33
2023-01-30T04:15:33.103Z,50.97
2023-01-30T04:18:19.805Z,50.83
2023-01-30T04:20:47.467Z,45.47
2023-01-30T04:23:14.302Z,42.70
2023-01-30T04:25:40.980Z,44.57
2023-01-30T04:28:07.687Z,46.57
2023-01-30T04:30:34.354Z,46.63
2023-01-30T04:33:01.223Z,44.37
2023-01-30T04:35:27.890Z,46.53
2023-01-30T04:37:54.756Z,44.87
2023-01-30T04:40:21.492Z,46.07
2023-01-30T04:42:48.214Z,46.37
2023-01-30T04:45:15.022Z,42.27
2023-01-30T04:47:41.791Z,35.83
2023-01-30T04:50:09.448Z,43.23
2023-01-30T04:52:37.138Z,39.80
2023-01-30T04:55:05.449Z,37.60
2023-01-30T04:57:32.254Z,35.23
2023-01-30T04:59:59.113Z,37.27
2023-01-30T05:02:25.899Z,34.60
2023-01-30T05:04:52.554Z,35.80
2023-01-30T05:07:19.380Z,34.70
2023-01-30T05:09:46.110Z,32.47
2023-01-30T05:12:12.768Z,31.37
2023-01-30T05:14:41.437Z,29.93
2023-01-30T05:17:08.432Z,30.33
2023-01-30T05:19:35.601Z,27.93
2023-01-30T05:22:02.654Z,26.43
2023-01-30T05:24:29.456Z,22.20
2023-01-30T05:26:56.163Z,26.70
2023-01-30T05:29:23.047Z,24.07
2023-01-30T05:31:49.976Z,24.80
2023-01-30T05:34:16.728Z,26.37
2023-01-30T05:36:43.377Z,23.73
2023-01-30T05:39:10.163Z,23.80
2023-01-30T05:41:36.794Z,21.80
2023-01-30T05:44:03.458Z,24.67
2023-01-30T05:46:30.319Z,22.60
2023-01-30T05:48:57.740Z,24.63
2023-01-30T05:51:26.719Z,22.67
2023-01-30T05:53:53.703Z,23.93
2023-01-30T05:56:20.693Z,23.33
2023-01-30T05:58:55.427Z,22.27
2023-01-30T06:01:23.100Z,22.37
2023-01-30T06:03:50.284Z,21.17
2023-01-30T06:06:17.038Z,20.27
2023-01-30T06:08:43.800Z,17.60
2023-01-30T06:11:15.892Z,18.13
2023-01-30T06:13:43.396Z,20.20
2023-01-30T06:16:12.768Z,19.73
2023-01-30T06:18:39.824Z,19.97
2023-01-30T06:21:07.181Z,20.27
2023-01-30T06:23:34.381Z,18.23
2023-01-30T06:26:04.619Z,16.20
2023-01-30T06:28:32.162Z,19.33
2023-01-30T06:30:59.027Z,17.27
2023-01-30T06:33:25.871Z,17.87
2023-01-30T06:35:52.878Z,17.77
2023-01-30T06:38:20.856Z,19.53
2023-01-30T06:40:50.608Z,21.13
2023-01-30T06:43:17.785Z,17.97
2023-01-30T06:45:44.473Z,15.33
2023-01-30T06:48:11.235Z,19.63
2023-01-30T06:50:38.224Z,12.53
2023-01-30T06:53:06.759Z,19.87
2023-01-30T06:55:35.537Z,20.50
2023-01-30T06:58:07.681Z,18.57
2023-01-30T07:00:35.171Z,16.93
2023-01-30T07:03:02.226Z,13.87
2023-01-30T07:05:30.519Z,21.67
2023-01-30T07:07:57.508Z,17.40
2023-01-30T07:10:26.621Z,17.13
2023-01-30T07:12:53.761Z,16.13
2023-01-30T07:15:20.842Z,18.07
2023-01-30T07:17:47.766Z,16.73
2023-01-30T07:20:14.590Z,19.03
2023-01-30T07:22:41.383Z,18.33
2023-01-30T07:25:08.827Z,16.87
2023-01-30T07:27:35.805Z,16.47
2023-01-30T07:30:02.865Z,22.57
2023-01-30T07:32:29.755Z,18.97
2023-01-30T07:34:56.444Z,17.47
2023-01-30T07:37:23.152Z,18.80
2023-01-30T07:39:49.913Z,19.40
2023-01-30T07:42:16.868Z,13.23
2023-01-30T07:44:43.700Z,19.83
2023-01-30T07:47:10.381Z,12.90
2023-01-30T07:49:37.161Z,18.80
2023-01-30T07:52:04.507Z,14.97
2023-01-30T07:54:31.251Z,15.53
2023-01-30T07:56:57.930Z,21.20
2023-01-30T07:59:24.624Z,14.17
2023-01-30T08:01:51.384Z,15.07
2023-01-30T08:04:18.149Z,11.13
2023-01-30T08:06:45.204Z,14.53
2023-01-30T08:09:11.945Z,17.07
2023-01-30T08:11:38.779Z,12.43
2023-01-30T08:14:05.544Z,14.03
2023-01-30T08:16:34.074Z,17.90
2023-01-30T08:19:00.827Z,15.97
2023-01-30T08:21:27.626Z,13.50
2023-01-30T08:23:54.702Z,11.87
2023-01-30T08:26:21.648Z,13.23
2023-01-30T08:28:48.388Z,18.33
2023-01-30T08:31:16.563Z,16.43
2023-01-30T08:33:43.607Z,11.50
2023-01-30T08:36:10.502Z,17.27
2023-01-30T08:38:37.235Z,19.37
2023-01-30T08:41:08.322Z,16.80
2023-01-30T08:43:35.289Z,17.27
2023-01-30T08:46:02.459Z,16.00
2023-01-30T08:48:36.645Z,19.60
2023-01-30T08:51:07.148Z,14.77
2023-01-30T08:53:33.972Z,19.10
2023-01-30T08:56:00.598Z,16.63
2023-01-30T08:58:27.722Z,16.03
2023-01-30T09:00:54.473Z,16.13
2023-01-30T09:03:21.200Z,12.07
2023-01-30T09:05:47.958Z,20.30
2023-01-30T09:08:14.665Z,13.43
2023-01-30T09:10:41.451Z,12.37
2023-01-30T09:13:11.242Z,20.97
2023-01-30T09:15:37.978Z,18.00
2023-01-30T09:18:05.189Z,18.50
2023-01-30T09:20:31.943Z,13.17
2023-01-30T09:22:58.777Z,12.50
2023-01-30T09:25:25.749Z,16.07
2023-01-30T09:27:52.847Z,16.50
2023-01-30T09:30:20.439Z,18.47
2023-01-30T09:32:48.449Z,17.57
2023-01-30T09:35:15.289Z,19.23
2023-01-30T09:37:53.015Z,14.57
2023-01-30T09:40:31.585Z,11.20
2023-01-30T09:43:15.537Z,13.93
2023-01-30T09:45:50.037Z,19.53
2023-01-30T09:48:34.548Z,17.37
2023-01-30T09:51:10.172Z,16.93
2023-01-30T09:53:55.690Z,10.67
2023-01-30T09:56:22.734Z,18.10
2023-01-30T09:58:55.322Z,17.80
2023-01-30T10:01:45.750Z,21.53
2023-01-30T10:04:35.896Z,13.13
2023-01-30T10:07:17.606Z,18.83
2023-01-30T10:10:04.835Z,14.10
2023-01-30T10:12:37.039Z,18.57
2023-01-30T10:15:45.952Z,20.03
2023-01-30T10:18:31.582Z,15.07
2023-01-30T10:21:32.752Z,12.70
2023-01-30T10:24:21.367Z,21.77
2023-01-30T10:26:48.835Z,18.03
2023-01-30T10:29:28.825Z,18.50
2023-01-30T10:32:18.827Z,14.37
2023-01-30T10:34:53.935Z,12.43
2023-01-30T10:37:30.858Z,24.00
2023-01-30T10:40:06.284Z,22.73
2023-01-30T10:42:47.476Z,16.27
2023-01-30T10:45:21.002Z,20.13
2023-01-30T10:48:18.890Z,20.27
2023-01-30T10:50:56.304Z,13.80
2023-01-30T10:53:33.604Z,15.10
2023-01-30T10:56:27.507Z,15.33
2023-01-30T10:59:22.344Z,12.57
2023-01-30T11:02:20.835Z,16.60
2023-01-30T11:05:01.135Z,18.70
2023-01-30T11:07:31.783Z,12.87
2023-01-30T11:09:59.720Z,16.07
2023-01-30T11:12:27.135Z,16.43
2023-01-30T11:14:58.931Z,15.27
2023-01-30T11:17:33.590Z,16.33
2023-01-30T11:20:21.729Z,13.17
2023-01-30T11:23:04.047Z,13.67
2023-01-30T11:25:31.044Z,17.80
2023-01-30T11:28:03.394Z,12.67
2023-01-30T11:30:35.052Z,23.90
2023-01-30T11:33:22.416Z,17.63
2023-01-30T11:35:58.366Z,14.23
2023-01-30T11:38:27.692Z,13.03
2023-01-30T11:41:04.988Z,17.97
2023-01-30T11:43:34.151Z,21.67
2023-01-30T11:46:02.294Z,20.23
2023-01-30T11:49:02.454Z,21.13
2023-01-30T11:51:23.896Z,13.63
2023-01-30T11:54:06.078Z,14.57
2023-01-30T11:56:42.814Z,14.00
2023-01-30T11:59:18.654Z,12.70
2023-01-30T12:01:45.395Z,11.90
2023-01-30T12:04:13.869Z,11.47
2023-01-30T12:06:42.905Z,14.00
2023-01-30T12:09:33.512Z,17.60
2023-01-30T12:12:00.352Z,9.13
2023-01-30T12:14:36.515Z,13.13
2023-01-30T12:17:06.171Z,11.37
2023-01-30T12:20:07.957Z,12.97
2023-01-30T12:23:15.272Z,16.47
2023-01-30T12:26:18.663Z,18.07
2023-01-30T12:28:52.264Z,13.63
2023-01-30T12:31:24.735Z,11.80
2023-01-30T12:33:51.628Z,13.93
2023-01-30T12:36:35.309Z,13.37
2023-01-30T12:39:25.653Z,13.90
2023-01-30T12:42:26.206Z,12.70
2023-01-30T12:45:14.583Z,10.67
2023-01-30T12:48:05.778Z,10.43
2023-01-30T12:50:41.449Z,11.03
2023-01-30T12:53:25.784Z,15.17
2023-01-30T12:56:09.339Z,13.83
2023-01-30T12:58:46.024Z,8.60
2023-01-30T13:01:44.415Z,10.43
2023-01-30T13:04:33.570Z,7.73
2023-01-30T13:07:39.668Z,6.43
2023-01-30T13:10:14.052Z,9.73
2023-01-30T13:12:45.039Z,11.37
2023-01-30T13:15:26.688Z,10.67
2023-01-30T13:18:15.260Z,8.97
2023-01-30T13:20:45.172Z,9.97
2023-01-30T13:23:22.924Z,10.30
2023-01-30T13:26:04.862Z,7.50
2023-01-30T13:28:43.794Z,7.40
2023-01-30T13:31:15.066Z,11.07
2023-01-30T13:33:44.764Z,15.90
2023-01-30T13:36:35.403Z,10.77
2023-01-30T13:39:14.892Z,10.90
2023-01-30T13:41:48.685Z,8.93
2023-01-30T13:44:22.663Z,11.27
2023-01-30T13:46:52.563Z,8.77
2023-01-30T13:49:48.160Z,10.53
2023-01-30T13:52:19.385Z,10.10
2023-01-30T13:54:58.246Z,10.73
2023-01-30T13:57:40.597Z,12.73
2023-01-30T14:00:25.883Z,11.77
2023-01-30T14:03:47.967Z,7.23
2023-01-30T14:06:31.072Z,14.17
2023-01-30T14:09:01.270Z,13.77
2023-01-30T14:11:43.068Z,9.70
2023-01-30T14:14:16.117Z,10.33
2023-01-30T14:16:46.382Z,9.93
2023-01-30T14:19:55.615Z,11.33
2023-01-30T14:22:31.886Z,9.63
2023-01-30T14:25:36.038Z,14.63
2023-01-30T14:28:05.841Z,13.87
2023-01-30T14:30:44.732Z,11.47
2023-01-30T14:33:23.769Z,12.57
2023-01-30T14:36:15.988Z,11.53
2023-01-30T14:38:45.350Z,20.87
2023-01-30T14:41:23.981Z,15.00
2023-01-30T14:43:53.602Z,12.70
2023-01-30T14:46:20.628Z,15.27
2023-01-30T14:49:04.490Z,15.03
2023-01-30T14:51:57.502Z,12.23
2023-01-30T14:54:41.070Z,14.50
2023-01-30T14:57:24.262Z,13.07
2023-01-30T15:00:14.959Z,12.40
2023-01-30T15:02:49.186Z,15.20
2023-01-30T15:05:20.028Z,14.37
2023-01-30T15:07:56.088Z,10.53
2023-01-30T15:11:00.525Z,15.63
2023-01-30T15:14:01.078Z,11.70
2023-01-30T15:17:15.335Z,13.30
2023-01-30T15:20:13.241Z,11.07
2023-01-30T15:22:48.805Z,13.13
2023-01-30T15:25:43.184Z,12.57
2023-01-30T15:28:39.309Z,12.97
2023-01-30T15:31:14.190Z,15.50
2023-01-30T15:33:52.619Z,16.87
2023-01-30T15:36:36.448Z,14.13
2023-01-30T15:39:19.538Z,16.43
2023-01-30T15:41:46.272Z,13.67
2023-01-30T15:44:31.699Z,18.27
2023-01-30T15:47:12.412Z,16.63
2023-01-30T15:49:41.908Z,15.40
2023-01-30T15:52:16.234Z,14.17
2023-01-30T15:54:52.078Z,20.40
2023-01-30T15:57:33.557Z,17.07
2023-01-30T16:00:01.247Z,16.90
2023-01-30T16:02:35.089Z,17.20
2023-01-30T16:05:19.911Z,18.37
2023-01-30T16:07:48.492Z,15.73
2023-01-30T16:10:17.040Z,16.83
2023-01-30T16:12:44.567Z,21.90
2023-01-30T16:15:26.919Z,24.90
2023-01-30T16:18:14.901Z,28.57
2023-01-30T16:23:42.600Z,15.77
2023-01-30T16:26:21.902Z,15.10
2023-01-30T16:28:51.004Z,19.93
2023-01-30T16:31:18.718Z,17.30
2023-01-30T16:33:52.780Z,23.87
2023-01-30T16:36:22.560Z,17.73
2023-01-30T16:38:50.616Z,12.53
2023-01-30T16:41:39.513Z,16.97
2023-01-30T16:44:24.140Z,16.47
2023-01-30T16:46:58.303Z,17.60
2023-01-30T16:49:37.093Z,16.23
2023-01-30T16:52:21.645Z,20.67
2023-01-30T16:54:56.679Z,14.43
2023-01-30T16:57:27.875Z,15.57
2023-01-30T16:59:55.664Z,17.47
2023-01-30T17:02:43.427Z,19.50
2023-01-30T17:05:31.466Z,17.90
2023-01-30T17:07:58.515Z,19.47
2023-01-30T17:10:28.084Z,17.83
2023-01-30T17:12:58.308Z,16.33
2023-01-30T17:15:27.179Z,21.57
2023-01-30T17:17:53.888Z,16.27
2023-01-30T17:20:20.820Z,16.27
2023-01-30T17:22:52.610Z,16.20
2023-01-30T17:25:38.193Z,20.27
2023-01-30T17:28:06.825Z,21.70
2023-01-30T17:30:33.853Z,20.53
2023-01-30T17:33:00.639Z,22.73
2023-01-30T17:35:27.435Z,21.33
2023-01-30T17:38:04.910Z,20.97
2023-01-30T17:40:36.924Z,23.30
2023-01-30T17:43:04.052Z,22.93
2023-01-30T17:45:30.808Z,20.13
2023-01-30T17:47:57.563Z,17.17
2023-01-30T17:50:24.433Z,19.07
2023-01-30T17:52:51.129Z,20.27
2023-01-30T17:55:18.375Z,16.00
2023-01-30T17:57:47.712Z,20.73
2023-01-30T18:00:20.707Z,24.33
2023-01-30T18:02:47.902Z,18.90
2023-01-30T18:05:14.819Z,15.80
2023-01-30T18:07:42.493Z,17.97
2023-01-30T18:10:16.556Z,15.37
2023-01-30T18:12:45.407Z,17.13
2023-01-30T18:15:15.080Z,15.57
2023-01-30T18:17:47.327Z,15.13
2023-01-30T18:20:17.716Z,19.63
2023-01-30T18:22:44.868Z,22.70
2023-01-30T18:25:15.307Z,25.30
2023-01-30T18:27:44.268Z,19.53
2023-01-30T18:30:17.511Z,12.17
2023-01-30T18:32:53.009Z,23.83
2023-01-30T18:35:22.220Z,18.87
2023-01-30T18:37:50.019Z,20.43
2023-01-30T18:40:17.956Z,18.07
2023-01-30T18:42:44.862Z,21.07
2023-01-30T18:45:11.882Z,25.67
2023-01-30T18:47:44.248Z,17.73
2023-01-30T18:50:11.986Z,18.83
2023-01-30T18:52:38.619Z,25.77
2023-01-30T18:55:05.701Z,14.43
2023-01-30T18:57:32.414Z,17.43
2023-01-30T18:59:59.251Z,28.23
2023-01-30T19:02:25.961Z,22.70
2023-01-30T19:04:52.618Z,16.73
2023-01-30T19:07:19.379Z,19.80
2023-01-30T19:09:46.559Z,19.23
2023-01-30T19:12:31.946Z,21.77
2023-01-30T19:14:58.631Z,20.90
2023-01-30T19:17:25.468Z,20.80
2023-01-30T19:19:52.224Z,24.30
2023-01-30T19:22:19.088Z,21.00
2023-01-30T19:24:45.831Z,30.33
2023-01-30T19:27:13.945Z,18.93
2023-01-30T19:29:41.743Z,26.83
2023-01-30T19:32:09.463Z,17.17
2023-01-30T19:34:37.603Z,23.90
2023-01-30T19:37:04.341Z,27.77
2023-01-30T19:39:30.999Z,20.37
2023-01-30T19:41:57.954Z,21.67
2023-01-30T19:44:25.156Z,24.97
2023-01-30T19:46:52.310Z,33.37
2023-01-30T19:49:19.027Z,29.97
2023-01-30T19:51:45.689Z,24.67
2023-01-30T19:54:13.056Z,21.23
2023-01-30T19:56:41.937Z,23.13
2023-01-30T19:59:11.184Z,24.30
2023-01-30T20:01:40.240Z,19.43
2023-01-30T20:04:07.057Z,23.83
2023-01-30T20:06:37.382Z,27.67
2023-01-30T20:09:11.240Z,19.50
2023-01-30T20:11:40.513Z,25.07
2023-01-30T20:14:08.245Z,22.17
2023-01-30T20:16:36.037Z,21.27
2023-01-30T20:19:06.273Z,19.53
2023-01-30T20:21:33.865Z,20.43
2023-01-30T20:24:02.163Z,27.80
2023-01-30T20:26:32.508Z,19.57
2023-01-30T20:28:59.334Z,23.53
2023-01-30T20:31:28.274Z,21.27
2023-01-30T20:33:57.646Z,25.33
2023-01-30T20:36:26.918Z,23.53
2023-01-30T20:38:55.407Z,19.40
2023-01-30T20:41:26.731Z,14.07
2023-01-30T20:43:57.305Z,22.43
2023-01-30T20:46:26.951Z,23.40
2023-01-30T20:48:55.360Z,15.37
2023-01-30T20:51:24.992Z,21.20
2023-01-30T20:53:57.181Z,21.27
2023-01-30T20:56:26.422Z,17.37
2023-01-30T20:58:53.383Z,25.37
2023-01-30T21:01:22.857Z,18.03
2023-01-30T21:03:52.382Z,20.57
2023-01-30T21:06:42.028Z,16.43
2023-01-30T21:09:18.041Z,20.70
2023-01-30T21:11:45.473Z,21.70
2023-01-30T21:14:12.851Z,21.27
2023-01-30T21:16:40.309Z,21.80
2023-01-30T21:19:10.189Z,20.23
2023-01-30T21:21:48.163Z,13.43
2023-01-30T21:24:15.362Z,20.13
2023-01-30T21:26:46.269Z,22.97
2023-01-30T21:29:17.579Z,21.47
2023-01-30T21:31:45.058Z,22.03
2023-01-30T21:34:13.468Z,20.70
2023-01-30T21:36:40.604Z,18.60
2023-01-30T21:39:26.283Z,17.83
2023-01-30T21:42:11.491Z,23.80
2023-01-30T21:44:38.293Z,11.70
2023-01-30T21:47:06.448Z,12.97
2023-01-30T21:49:33.758Z,17.03
2023-01-30T21:52:01.006Z,14.77
2023-01-30T21:54:27.883Z,10.57
2023-01-30T21:56:54.884Z,12.20
2023-01-30T21:59:22.278Z,10.07
2023-01-30T22:01:49.010Z,16.90
2023-01-30T22:04:18.121Z,12.60
2023-01-30T22:06:44.807Z,14.67
2023-01-30T22:09:14.471Z,18.80
2023-01-30T22:11:41.644Z,21.93
2023-01-30T22:14:08.702Z,31.17
2023-01-30T22:16:35.406Z,22.83
2023-01-30T22:19:05.484Z,26.60
2023-01-30T22:21:40.073Z,25.53
2023-01-30T22:24:09.429Z,25.57
2023-01-30T22:26:36.725Z,29.10
2023-01-30T22:29:06.053Z,20.10
2023-01-30T22:31:36.600Z,26.37
2023-01-30T22:34:04.868Z,27.77
2023-01-30T22:36:34.487Z,29.50
2023-01-30T22:39:01.661Z,27.37
2023-01-30T22:41:31.689Z,35.43
2023-01-30T22:44:00.444Z,33.43
2023-01-30T22:46:33.508Z,24.20
2023-01-30T22:49:01.806Z,27.37
2023-01-30T22:51:31.160Z,33.67
2023-01-30T22:54:02.947Z,27.83
2023-01-30T22:56:41.382Z,29.87
2023-01-30T22:59:09.344Z,32.90
2023-01-30T23:01:38.551Z,25.47
2023-01-30T23:04:10.642Z,33.00
2023-01-30T23:06:39.513Z,28.23
2023-01-30T23:09:07.888Z,23.97
2023-01-30T23:11:41.483Z,21.80
2023-01-30T23:14:15.265Z,18.43
2023-01-30T23:16:44.846Z,17.80
2023-01-30T23:19:13.220Z,15.77
2023-01-30T23:21:45.544Z,15.53
2023-01-30T23:24:18.140Z,25.13
2023-01-30T23:26:48.100Z,26.30
2023-01-30T23:29:16.855Z,18.33
2023-01-30T23:31:44.783Z,23.17
2023-01-30T23:34:17.208Z,26.27
2023-01-30T23:36:44.904Z,26.40
2023-01-30T23:39:13.606Z,31.57
2023-01-30T23:41:41.868Z,24.77
2023-01-30T23:44:09.717Z,23.40
2023-01-30T23:46:41.522Z,27.30
2023-01-30T23:49:11.438Z,21.50
2023-01-30T23:51:40.368Z,25.77
2023-01-30T23:54:07.676Z,31.13
2023-01-30T23:56:36.380Z,20.67
2023-01-30T23:59:04.149Z,26.20
